Latest Weather Observations for Point Cook

IDV60901

Issued at 11:31 pm EST Thursday 18 July 2024 (issued every 10 minutes, with the page automatically refreshed every 10 minutes)

About weather observations | Map of Melbourne area stations | Latest observations for Melbourne area | Other Formats
Station Details ID: 087185 Name: POINT COOK RAAF Lat: -37.93 Lon: 144.76 Height: 3.13 m
Data from the previous 72 hours. | See also: Recent months for locations in Victoria
Date/Time
EST
Temp
°C
App
Temp
°C
Dew
Point
°C
Rel
Hum
%
Delta-T
°C
Wind Press
QNH
hPa
Press
MSL
hPa
Rain since
9am
mm
Dir  Spd
km/h
Gust
km/h
Spd
kts
Gust
kts
18/11:30pm 8.0 5.0 4.0 76 1.7 N 9 11 5 6 1014.8 1014.8 0.0
18/11:00pm 8.5 5.6 4.5 76 1.8 NNW 9 13 5 7 1015.4 1015.4 0.0
18/10:30pm 8.5 5.2 4.5 76 1.8 NNW 11 15 6 8 1015.6 1015.6 0.0
18/10:00pm 8.2 5.2 4.0 75 1.8 N 9 13 5 7 1015.9 1015.9 0.0
18/09:30pm 8.4 5.3 3.8 73 2.0 NNW 9 13 5 7 1015.9 1015.9 0.0
18/09:00pm 7.8 4.7 3.8 76 1.7 NNW 9 13 5 7 1016.0 1016.0 0.0
18/08:30pm 7.7 4.3 4.1 78 1.6 NNW 11 13 6 7 1015.9 1015.9 0.0
18/08:00pm 7.7 4.5 3.2 73 1.9 N 9 9 5 5 1015.4 1015.4 0.0
18/07:30pm 8.4 5.3 3.5 71 2.1 N 9 9 5 5 1015.5 1015.5 0.0
18/07:00pm 9.1 6.4 3.9 70 2.3 N 7 7 4 4 1015.3 1015.3 0.0
18/06:30pm 9.1 6.6 3.9 70 2.3 NNW 6 6 3 3 1015.5 1015.5 0.0
18/06:00pm 8.9 6.5 4.5 74 1.9 NW 6 7 3 4 1015.5 1015.5 0.0
18/05:30pm 9.9 7.4 3.6 65 2.7 W 6 9 3 5 1015.7 1015.7 0.0
18/05:00pm 10.2 7.4 3.3 62 3.0 WNW 7 9 4 5 1015.2 1015.2 0.0
18/04:30pm 10.7 7.5 3.3 60 3.2 W 9 15 5 8 1015.2 1015.2 0.0
18/04:00pm 10.9 6.1 2.7 57 3.5 W 17 26 9 14 1015.0 1015.0 0.0
18/03:30pm 11.2 6.5 3.3 58 3.5 WSW 17 20 9 11 1015.0 1015.0 0.0
18/03:00pm 11.1 6.5 3.9 61 3.2 WSW 17 24 9 13 1015.3 1015.3 0.0
18/02:30pm 11.4 7.1 3.2 57 3.6 W 15 22 8 12 1015.5 1015.5 0.0
18/02:00pm 10.9 7.7 5.0 67 2.7 SSW 11 17 6 9 1015.4 1015.4 0.0
18/01:30pm 10.9 7.3 5.2 68 2.6 SW 13 17 7 9 1015.6 1015.6 0.0
18/01:00pm 10.9 6.7 3.9 62 3.1 WSW 15 20 8 11 1015.8 1015.8 0.0
18/12:30pm 11.1 6.0 4.3 63 3.0 WSW 20 28 11 15 1016.1 1016.1 0.0
18/12:00pm 11.6 6.3 5.0 64 3.0 WSW 22 28 12 15 1016.2 1016.2 0.0
18/11:30am 11.3 6.4 5.0 65 2.9 WSW 20 26 11 14 1016.5 1016.5 0.0
18/11:00am 10.9 7.5 5.7 70 2.4 W 13 19 7 10 1016.9 1016.9 0.0
18/10:30am 9.8 5.7 6.2 78 1.7 W 17 24 9 13 1017.1 1017.1 0.0
18/10:00am 8.9 4.2 6.0 82 1.3 WSW 20 28 11 15 1017.1 1017.1 0.0
18/09:30am 8.5 5.5 6.1 85 1.1 W 11 17 6 9 1016.9 1016.9 0.0
18/09:00am 7.3 4.6 5.6 89 0.8 SW 9 13 5 7 1017.0 1017.0 0.8
18/08:30am 7.1 3.6 5.6 90 0.7 W 13 20 7 11 1016.9 1016.9 0.8
18/08:00am 6.5 2.9 4.8 89 0.7 W 13 19 7 10 1016.6 1016.6 0.8
18/07:30am 6.8 1.5 5.0 88 0.8 W 22 30 12 16 1016.6 1016.6 0.6
18/07:00am 6.9 2.2 5.1 88 0.8 W 19 28 10 15 1016.0 1016.0 0.6
18/06:30am 6.7 2.3 4.9 88 0.8 W 17 22 9 12 1015.6 1015.6 0.6
18/06:00am 7.1 2.4 5.3 88 0.8 W 19 24 10 13 1015.4 1015.4 0.6
18/05:30am 6.2 2.5 4.7 90 0.6 W 13 17 7 9 1015.2 1015.2 0.6
18/05:00am 6.4 2.4 4.7 89 0.7 W 15 22 8 12 1015.2 1015.2 0.6
18/04:30am 6.9 2.6 5.1 88 0.8 W 17 20 9 11 1015.2 1015.2 0.6
18/04:00am 7.3 2.6 5.3 87 0.9 W 19 24 10 13 1015.2 1015.2 0.6
18/03:30am 7.6 3.4 5.6 87 0.9 W 17 24 9 13 1015.3 1015.3 0.6
18/03:00am 7.6 4.2 6.1 90 0.7 W 13 17 7 9 1015.1 1015.1 0.6
18/02:30am 7.7 3.6 6.2 90 0.7 W 17 20 9 11 1015.2 1015.2 0.6
18/02:00am 7.7 4.0 6.2 90 0.7 W 15 22 8 12 1015.2 1015.2 0.6
18/01:30am 7.9 4.5 6.0 88 0.9 W 13 19 7 10 1015.0 1015.0 0.4
18/01:00am 8.0 5.1 6.5 90 0.7 W 11 15 6 8 1015.1 1015.1 0.4
18/12:30am 8.0 4.8 6.8 92 0.6 W 13 17 7 9 1015.0 1015.0 0.4
18/12:23am 8.0 4.4 6.8 92 0.6 W 15 19 8 10 1015.1 1015.1 0.4
18/12:04am 8.0 4.4 6.8 92 0.6 W 15 22 8 12 1015.4 1015.4 0.4
18/12:00am 8.1 4.5 6.9 92 0.6 W 15 22 8 12 1015.4 1015.4 0.4
 
Date/Time
EST
Temp
°C
App
Temp
°C
Dew
Point
°C
Rel
Hum
%
Delta-T
°C
Wind Press
QNH
hPa
Press
MSL
hPa
Rain since
9am
mm
Dir  Spd
km/h
Gust
km/h
Spd
kts
Gust
kts
17/11:55pm 8.1 4.5 6.9 92 0.6 W 15 22 8 12 1015.3 1015.3 0.4
17/11:35pm 8.4 4.4 6.7 89 0.8 WSW 17 26 9 14 1015.4 1015.4 0.4
17/11:30pm 8.5 5.3 6.8 89 0.8 W 13 20 7 11 1015.4 1015.4 0.4
17/11:00pm 8.4 4.8 6.9 90 0.7 W 15 19 8 10 1015.0 1015.0 0.4
17/10:58pm 8.4 4.8 6.9 90 0.7 W 15 19 8 10 1015.0 1015.0 0.4
17/10:30pm 8.9 3.6 7.0 88 0.9 SW 24 35 13 19 1015.3 1015.3 0.2
17/10:27pm 9.0 3.8 7.1 88 0.9 SW 24 35 13 19 1015.3 1015.3 0.2
17/10:00pm 9.9 6.7 6.8 81 1.5 WSW 13 19 7 10 1015.0 1015.0 0.2
17/09:30pm 9.9 7.1 7.0 82 1.4 WSW 11 17 6 9 1014.7 1014.7 0.2
17/09:00pm 9.9 6.9 7.5 85 1.1 W 13 19 7 10 1014.5 1014.5 0.2
17/08:30pm 9.8 6.4 7.7 87 1.0 W 15 22 8 12 1014.5 1014.5 0.2
17/08:00pm 9.6 6.2 7.5 87 1.0 WSW 15 20 8 11 1014.2 1014.2 0.2
17/07:30pm 10.0 5.8 8.1 88 0.9 SW 20 26 11 14 1014.0 1014.0 0.2
17/07:00pm 10.4 5.5 8.3 87 1.0 SW 24 33 13 18 1013.9 1013.9 0.2
17/06:30pm 10.3 4.1 7.9 85 1.2 SW 30 37 16 20 1013.5 1013.5 0.2
17/06:00pm 10.5 6.1 8.9 90 0.8 SW 22 28 12 15 1013.1 1013.1 0.2
17/05:48pm 10.5 6.2 9.3 92 0.6 SSW 22 30 12 16 1012.9 1012.9 0.2
17/05:30pm 10.1 3.6 8.9 92 0.6 SW 33 46 18 25 1012.8 1012.8 0.2
17/05:29pm 10.1 3.6 8.9 92 0.6 SW 33 46 18 25 1012.8 1012.8 0.2
17/05:25pm 10.5 4.1 9.3 92 0.6 SW 33 44 18 24 1012.8 1012.8 0.2
17/05:00pm 10.9 7.6 9.5 91 0.7 SW 17 26 9 14 1012.3 1012.3 0.2
17/04:41pm 11.0 7.3 9.6 91 0.7 SW 19 24 10 13 1012.2 1012.2 0.2
17/04:30pm 10.9 6.3 9.7 92 0.6 SW 24 39 13 21 1012.2 1012.2 0.2
17/04:22pm 10.8 4.0 9.2 90 0.8 SW 35 44 19 24 1012.2 1012.2 0.0
17/04:00pm 12.2 8.2 9.0 81 1.6 SW 20 26 11 14 1012.0 1012.0 0.0
17/03:30pm 13.1 9.2 9.4 78 1.9 SW 20 24 11 13 1011.6 1011.6 0.0
17/03:00pm 12.7 10.3 10.2 85 1.3 SSW 13 19 7 10 1011.4 1011.4 0.0
17/02:30pm 12.5 9.8 10.2 86 1.2 SSW 15 19 8 10 1011.3 1011.3 0.0
17/02:00pm 11.9 7.7 9.8 87 1.1 SW 22 30 12 16 1011.4 1011.4 0.0
17/01:30pm 13.2 8.7 10.0 81 1.6 SW 24 32 13 17 1011.5 1011.5 0.0
17/01:00pm 13.0 10.0 10.5 85 1.3 WSW 17 24 9 13 1011.5 1011.5 0.0
17/12:30pm 13.3 9.8 10.8 85 1.3 WSW 20 26 11 14 1011.7 1011.7 0.0
17/12:00pm 14.1 11.2 10.9 81 1.7 SW 17 22 9 12 1012.0 1012.0 0.0
17/11:30am 13.3 10.8 11.0 86 1.2 WSW 15 19 8 10 1012.3 1012.3 0.0
17/11:00am 13.0 10.4 10.7 86 1.2 WSW 15 19 8 10 1012.7 1012.7 0.0
17/10:42am 13.0 10.9 11.1 88 1.0 WSW 13 19 7 10 1012.7 1012.7 0.0
17/10:30am 12.3 9.6 10.5 89 0.9 WSW 15 19 8 10 1012.6 1012.6 0.0
17/10:11am 12.1 9.8 10.5 90 0.8 WSW 13 17 7 9 1012.5 1012.5 0.0
17/10:00am 11.9 10.0 10.6 92 0.7 WSW 11 17 6 9 1012.5 1012.5 0.0
17/09:30am 10.8 9.1 10.0 95 0.4 W 9 13 5 7 1012.3 1012.3 0.0
17/09:00am 9.1 7.4 8.5 96 0.3 W 7 11 4 6 1012.1 1012.1 0.2
17/08:30am 8.0 5.3 7.4 96 0.3 W 11 15 6 8 1011.8 1011.8 0.2
17/08:00am 7.6 4.8 7.0 96 0.3 W 11 13 6 7 1011.3 1011.3 0.2
17/07:30am 7.0 4.5 6.4 96 0.3 W 9 11 5 6 1011.2 1011.2 0.2
17/07:00am 7.2 4.3 6.5 95 0.3 W 11 13 6 7 1011.1 1011.1 0.2
17/06:30am 7.4 4.5 6.7 95 0.3 W 11 13 6 7 1011.0 1011.0 0.2
17/06:00am 7.5 4.7 6.8 95 0.3 W 11 15 6 8 1010.8 1010.8 0.2
17/05:30am 8.0 5.3 7.2 95 0.4 W 11 15 6 8 1010.6 1010.6 0.2
17/05:00am 7.8 5.0 6.9 94 0.4 W 11 13 6 7 1010.5 1010.5 0.2
17/04:30am 7.7 4.4 6.6 93 0.5 WNW 13 15 7 8 1010.3 1010.3 0.2
17/04:13am 7.9 4.3 6.7 92 0.6 WNW 15 19 8 10 1010.3 1010.3 0.2
17/04:00am 8.1 4.5 6.9 92 0.6 WNW 15 19 8 10 1010.3 1010.3 0.2
17/03:30am 8.7 5.2 7.3 91 0.7 W 15 19 8 10 1010.6 1010.6 0.2
17/03:18am 8.3 4.8 7.1 92 0.6 W 15 19 8 10 1010.6 1010.6 0.2
17/03:00am 7.7 4.5 6.8 94 0.4 W 13 17 7 9 1010.6 1010.6 0.2
17/02:30am 7.7 4.5 7.0 95 0.3 W 13 15 7 8 1010.5 1010.5 0.2
17/02:00am 7.7 5.7 7.1 96 0.3 W 7 9 4 5 1010.6 1010.6 0.2
17/01:30am 7.8 5.4 7.1 95 0.3 W 9 11 5 6 1010.4 1010.4 0.0
17/01:00am 8.3 5.7 7.7 96 0.3 W 11 15 6 8 1010.4 1010.4 0.0
17/12:30am 8.3 5.6 7.5 95 0.4 W 11 13 6 7 1010.4 1010.4 0.0
17/12:00am 8.4 5.8 7.6 95 0.4 W 11 13 6 7 1010.5 1010.5 0.0
 
Date/Time
EST
Temp
°C
App
Temp
°C
Dew
Point
°C
Rel
Hum
%
Delta-T
°C
Wind Press
QNH
hPa
Press
MSL
hPa
Rain since
9am
mm
Dir  Spd
km/h
Gust
km/h
Spd
kts
Gust
kts
16/11:30pm 9.2 6.7 8.3 94 0.4 WSW 11 13 6 7 1010.6 1010.6 0.0
16/11:00pm 9.8 7.1 8.9 94 0.4 SW 13 17 7 9 1010.7 1010.7 0.0
16/10:30pm 9.1 6.6 8.2 94 0.4 SW 11 13 6 7 1010.5 1010.5 0.0
16/10:00pm 10.2 7.1 9.0 92 0.6 SW 15 19 8 10 1010.5 1010.5 0.0
16/09:30pm 10.2 7.1 9.0 92 0.6 SW 15 17 8 9 1010.4 1010.4 0.0
16/09:00pm 10.6 8.0 9.4 92 0.6 SW 13 15 7 8 1010.2 1010.2 0.0
16/08:30pm 11.0 8.6 9.9 93 0.6 SW 13 15 7 8 1009.9 1009.9 0.0
16/08:00pm 11.2 8.8 10.1 93 0.6 SW 13 15 7 8 1009.7 1009.7 0.0
16/07:30pm 11.6 8.5 10.2 91 0.7 SW 17 20 9 11 1009.5 1009.5 0.0
16/07:00pm 12.2 9.9 10.6 90 0.8 WSW 13 17 7 9 1009.1 1009.1 0.0
16/06:30pm 12.1 9.1 10.5 90 0.8 SW 17 20 9 11 1008.8 1008.8 0.0
16/06:00pm 11.7 9.4 10.3 91 0.7 SW 13 17 7 9 1008.7 1008.7 0.0
16/05:30pm 12.1 9.0 10.3 89 0.9 SW 17 20 9 11 1008.3 1008.3 0.0
16/05:00pm 12.3 9.6 10.2 87 1.1 SW 15 17 8 9 1008.0 1008.0 0.0
16/04:30pm 12.8 10.5 10.5 86 1.2 SW 13 17 7 9 1007.7 1007.7 0.0
16/04:00pm 12.7 10.1 10.6 87 1.1 SW 15 17 8 9 1007.5 1007.5 0.0
16/03:30pm 12.6 9.6 10.5 87 1.1 SW 17 19 9 10 1007.2 1007.2 0.0
16/03:00pm 12.7 10.0 10.4 86 1.2 SW 15 20 8 11 1007.1 1007.1 0.0
16/02:30pm 12.9 9.2 10.3 84 1.3 SW 20 24 11 13 1006.9 1006.9 0.0
16/02:00pm 12.9 9.3 10.4 85 1.3 SW 20 24 11 13 1006.8 1006.8 0.0
16/01:30pm 13.6 10.2 10.6 82 1.6 SW 19 24 10 13 1006.7 1006.7 0.0
16/01:00pm 13.4 10.0 10.6 83 1.5 SW 19 24 10 13 1006.7 1006.7 0.0
16/12:30pm 13.0 10.5 11.1 88 1.0 SW 15 17 8 9 1006.9 1006.9 0.0
16/12:00pm 13.1 9.8 11.0 87 1.1 SSW 19 24 10 13 1007.1 1007.1 0.0
16/11:30am 13.3 10.5 11.2 87 1.1 SW 17 22 9 12 1007.2 1007.2 0.0
16/11:00am 12.9 9.7 11.1 89 0.9 SW 19 22 10 12 1007.2 1007.2 0.0
16/10:30am 12.9 9.7 11.1 89 0.9 SW 19 22 10 12 1007.1 1007.1 0.0
16/10:29am 12.9 9.7 11.1 89 0.9 SW 19 22 10 12 1007.1 1007.1 0.0
16/10:03am 13.3 10.2 11.5 89 1.0 SW 19 24 10 13 1006.8 1006.8 0.0
16/10:02am 13.4 10.1 11.6 89 1.0 SW 20 24 11 13 1006.8 1006.8 0.0
16/10:00am 13.3 10.0 11.5 89 1.0 SW 20 24 11 13 1006.7 1006.7 0.0
16/09:30am 12.4 9.5 11.0 91 0.7 SW 17 20 9 11 1006.3 1006.3 0.0
16/09:24am 12.2 9.2 10.8 91 0.7 SW 17 20 9 11 1006.3 1006.3 0.0
16/09:00am 11.9 9.3 10.6 92 0.7 SW 15 19 8 10 1005.9 1005.9 17.4
16/08:30am 11.7 8.2 10.1 90 0.8 SW 19 24 10 13 1005.3 1005.3 17.4
16/08:00am 11.9 8.2 10.3 90 0.8 SSW 20 26 11 14 1005.0 1005.0 17.4
16/07:30am 11.8 8.2 10.4 91 0.7 SSW 20 26 11 14 1004.8 1004.8 17.4
16/07:00am 11.8 7.7 10.2 90 0.8 SSW 22 26 12 14 1004.5 1004.5 17.4
16/06:30am 11.5 7.3 9.9 90 0.8 SSW 22 28 12 15 1004.1 1004.1 17.4
16/06:00am 11.7 7.2 10.1 90 0.8 SSW 24 28 13 15 1003.7 1003.7 17.4
16/05:30am 11.6 7.4 9.9 89 0.9 SSW 22 30 12 16 1003.3 1003.3 17.4
16/05:00am 11.6 7.4 9.9 89 0.9 SSW 22 32 12 17 1003.0 1003.0 17.4
16/04:30am 11.9 7.4 10.1 89 0.9 SSW 24 33 13 18 1002.7 1002.7 17.4
16/04:00am 12.0 7.6 10.4 90 0.8 SSW 24 30 13 16 1002.4 1002.4 17.4
16/03:30am 12.1 8.1 10.5 90 0.8 SSW 22 30 12 16 1002.1 1002.1 17.4
16/03:00am 12.0 7.6 10.4 90 0.8 SSW 24 32 13 17 1001.9 1001.9 17.4
16/02:30am 12.0 6.9 10.6 91 0.7 SSW 28 35 15 19 1001.6 1001.6 17.4
16/02:24am 12.0 6.9 10.6 91 0.7 SW 28 37 15 20 1001.5 1001.5 17.4
16/02:00am 12.0 6.5 10.7 92 0.7 SW 30 37 16 20 1001.3 1001.3 17.4
16/01:30am 11.4 5.9 10.6 95 0.4 SW 30 35 16 19 1000.9 1000.9 17.4
16/01:10am 11.2 6.9 10.6 96 0.3 SW 24 32 13 17 1000.8 1000.8 17.4
16/01:00am 10.3 5.0 9.7 96 0.3 WSW 28 37 15 20 1000.8 1000.8 17.4
16/12:30am 9.7 3.2 8.9 95 0.4 W 33 46 18 25 1000.6 1000.6 14.8
16/12:00am 9.6 3.1 8.8 95 0.4 W 33 48 18 26 1000.6 1000.6 12.6

Latest Capital City Observations: Canberra | Sydney | Melbourne | Brisbane | Adelaide | Perth | Hobart | Darwin

Other formats

Comma delimited format used in spreadsheet applications
http://www.bom.gov.au/fwo/IDV60901/IDV60901.95941.axf

JavaScript Object Notation format (JSON) in row-major order
http://www.bom.gov.au/fwo/IDV60901/IDV60901.95941.json

Data quality

Most of these data are generated automatically and are frequently updated. Quality checks on data are not normally performed. It is possible for incorrect values to appear. Refer to information at About Latest Weather Observations and please check the disclaimer before using these data.